sensor_id;sensor_type;location;lat;lon;timestamp;temperature;humidity
3727;DHT22;1879;45.876;12.300;2023-07-31T00:00:06;24.00;99.90
3727;DHT22;1879;45.876;12.300;2023-07-31T00:02:34;24.00;99.90
3727;DHT22;1879;45.876;12.300;2023-07-31T00:05:01;24.00;99.90
3727;DHT22;1879;45.876;12.300;2023-07-31T00:07:28;24.00;99.90
3727;DHT22;1879;45.876;12.300;2023-07-31T00:09:56;24.00;99.90
3727;DHT22;1879;45.876;12.300;2023-07-31T00:12:24;23.90;99.90
3727;DHT22;1879;45.876;12.300;2023-07-31T00:14:51;24.00;99.90
3727;DHT22;1879;45.876;12.300;2023-07-31T00:17:18;24.00;99.90
3727;DHT22;1879;45.876;12.300;2023-07-31T00:19:45;24.00;99.90
3727;DHT22;1879;45.876;12.300;2023-07-31T00:22:14;24.10;99.90
3727;DHT22;1879;45.876;12.300;2023-07-31T00:24:41;24.10;99.90
3727;DHT22;1879;45.876;12.300;2023-07-31T00:27:08;24.10;99.90
3727;DHT22;1879;45.876;12.300;2023-07-31T00:29:37;24.00;99.90
3727;DHT22;1879;45.876;12.300;2023-07-31T00:32:04;24.00;99.90
3727;DHT22;1879;45.876;12.300;2023-07-31T00:34:31;24.00;99.90
3727;DHT22;1879;45.876;12.300;2023-07-31T00:36:58;23.90;99.90
3727;DHT22;1879;45.876;12.300;2023-07-31T00:39:25;23.90;99.90
3727;DHT22;1879;45.876;12.300;2023-07-31T00:41:52;23.80;99.90
3727;DHT22;1879;45.876;12.300;2023-07-31T00:44:19;23.80;99.90
3727;DHT22;1879;45.876;12.300;2023-07-31T00:46:48;23.80;99.90
3727;DHT22;1879;45.876;12.300;2023-07-31T00:49:16;23.80;99.90
3727;DHT22;1879;45.876;12.300;2023-07-31T00:51:43;23.70;99.90
3727;DHT22;1879;45.876;12.300;2023-07-31T00:54:10;23.70;99.90
3727;DHT22;1879;45.876;12.300;2023-07-31T00:56:38;23.70;99.90
3727;DHT22;1879;45.876;12.300;2023-07-31T00:59:05;23.60;99.90
3727;DHT22;1879;45.876;12.300;2023-07-31T01:01:32;23.60;99.90
3727;DHT22;1879;45.876;12.300;2023-07-31T01:04:00;23.50;99.90
3727;DHT22;1879;45.876;12.300;2023-07-31T01:06:31;23.40;99.90
3727;DHT22;1879;45.876;12.300;2023-07-31T01:09:06;23.40;99.90
3727;DHT22;1879;45.876;12.300;2023-07-31T01:11:41;23.40;99.90
3727;DHT22;1879;45.876;12.300;2023-07-31T01:14:09;23.40;99.90
3727;DHT22;1879;45.876;12.300;2023-07-31T01:16:36;23.30;99.90
3727;DHT22;1879;45.876;12.300;2023-07-31T01:19:05;23.30;99.90
3727;DHT22;1879;45.876;12.300;2023-07-31T01:21:50;23.30;99.90
3727;DHT22;1879;45.876;12.300;2023-07-31T01:24:25;23.40;99.90
3727;DHT22;1879;45.876;12.300;2023-07-31T01:27:00;23.30;99.90
3727;DHT22;1879;45.876;12.300;2023-07-31T01:29:34;23.40;99.90
3727;DHT22;1879;45.876;12.300;2023-07-31T01:32:05;23.40;99.90
3727;DHT22;1879;45.876;12.300;2023-07-31T01:34:33;23.50;99.90
3727;DHT22;1879;45.876;12.300;2023-07-31T01:37:01;23.50;99.90
3727;DHT22;1879;45.876;12.300;2023-07-31T01:39:28;23.50;99.90
3727;DHT22;1879;45.876;12.300;2023-07-31T01:41:56;23.60;99.90
3727;DHT22;1879;45.876;12.300;2023-07-31T01:44:23;23.60;99.90
3727;DHT22;1879;45.876;12.300;2023-07-31T01:46:50;23.70;99.90
3727;DHT22;1879;45.876;12.300;2023-07-31T01:49:17;23.70;99.90
3727;DHT22;1879;45.876;12.300;2023-07-31T01:51:44;23.80;99.90
3727;DHT22;1879;45.876;12.300;2023-07-31T01:54:11;23.80;99.90
3727;DHT22;1879;45.876;12.300;2023-07-31T01:56:38;23.80;99.90
3727;DHT22;1879;45.876;12.300;2023-07-31T01:59:06;23.80;99.90
3727;DHT22;1879;45.876;12.300;2023-07-31T02:01:33;23.80;99.90
3727;DHT22;1879;45.876;12.300;2023-07-31T02:04:00;23.80;99.90
3727;DHT22;1879;45.876;12.300;2023-07-31T02:06:29;23.80;99.90
3727;DHT22;1879;45.876;12.300;2023-07-31T02:08:56;23.90;99.90
3727;DHT22;1879;45.876;12.300;2023-07-31T02:11:23;23.90;99.90
3727;DHT22;1879;45.876;12.300;2023-07-31T02:13:50;23.90;99.90
3727;DHT22;1879;45.876;12.300;2023-07-31T02:16:18;23.90;99.90
3727;DHT22;1879;45.876;12.300;2023-07-31T02:18:45;23.90;99.90
3727;DHT22;1879;45.876;12.300;2023-07-31T02:21:12;23.90;99.90
3727;DHT22;1879;45.876;12.300;2023-07-31T02:23:39;23.90;99.90
3727;DHT22;1879;45.876;12.300;2023-07-31T02:26:06;23.90;99.90
3727;DHT22;1879;45.876;12.300;2023-07-31T02:28:32;23.90;99.90
3727;DHT22;1879;45.876;12.300;2023-07-31T02:30:59;23.90;99.90
3727;DHT22;1879;45.876;12.300;2023-07-31T02:33:28;23.80;99.90
3727;DHT22;1879;45.876;12.300;2023-07-31T02:35:55;23.90;99.90
3727;DHT22;1879;45.876;12.300;2023-07-31T02:38:22;23.90;99.90
3727;DHT22;1879;45.876;12.300;2023-07-31T02:40:49;23.90;99.90
3727;DHT22;1879;45.876;12.300;2023-07-31T02:43:16;23.90;99.90
3727;DHT22;1879;45.876;12.300;2023-07-31T02:45:43;23.90;99.90
3727;DHT22;1879;45.876;12.300;2023-07-31T02:48:10;23.90;99.90
3727;DHT22;1879;45.876;12.300;2023-07-31T02:50:38;24.00;99.90
3727;DHT22;1879;45.876;12.300;2023-07-31T02:53:05;23.90;99.90
3727;DHT22;1879;45.876;12.300;2023-07-31T02:55:32;23.90;99.90
3727;DHT22;1879;45.876;12.300;2023-07-31T02:57:59;23.90;99.90
3727;DHT22;1879;45.876;12.300;2023-07-31T03:00:26;23.90;99.90
3727;DHT22;1879;45.876;12.300;2023-07-31T03:02:53;23.90;99.90
3727;DHT22;1879;45.876;12.300;2023-07-31T03:05:20;23.80;99.90
3727;DHT22;1879;45.876;12.300;2023-07-31T03:07:48;23.90;99.90
3727;DHT22;1879;45.876;12.300;2023-07-31T03:10:15;23.80;99.90
3727;DHT22;1879;45.876;12.300;2023-07-31T03:12:42;23.70;99.90
3727;DHT22;1879;45.876;12.300;2023-07-31T03:15:10;23.60;99.90
3727;DHT22;1879;45.876;12.300;2023-07-31T03:17:37;23.50;99.90
3727;DHT22;1879;45.876;12.300;2023-07-31T03:20:04;23.40;99.90
3727;DHT22;1879;45.876;12.300;2023-07-31T03:22:31;23.30;99.90
3727;DHT22;1879;45.876;12.300;2023-07-31T03:25:01;23.20;99.90
3727;DHT22;1879;45.876;12.300;2023-07-31T03:27:28;23.20;99.90
3727;DHT22;1879;45.876;12.300;2023-07-31T03:29:55;23.10;99.90
3727;DHT22;1879;45.876;12.300;2023-07-31T03:32:22;23.00;99.90
3727;DHT22;1879;45.876;12.300;2023-07-31T03:34:49;22.90;99.90
3727;DHT22;1879;45.876;12.300;2023-07-31T03:37:16;22.90;99.90
3727;DHT22;1879;45.876;12.300;2023-07-31T03:39:43;22.90;99.90
3727;DHT22;1879;45.876;12.300;2023-07-31T03:42:11;22.90;99.90
3727;DHT22;1879;45.876;12.300;2023-07-31T03:44:38;22.80;99.90
3727;DHT22;1879;45.876;12.300;2023-07-31T03:47:05;22.80;99.90
3727;DHT22;1879;45.876;12.300;2023-07-31T03:49:32;22.80;99.90
3727;DHT22;1879;45.876;12.300;2023-07-31T03:51:59;22.80;99.90
3727;DHT22;1879;45.876;12.300;2023-07-31T03:54:26;22.90;99.90
3727;DHT22;1879;45.876;12.300;2023-07-31T03:56:53;22.90;99.90
3727;DHT22;1879;45.876;12.300;2023-07-31T03:59:21;22.90;99.90
3727;DHT22;1879;45.876;12.300;2023-07-31T04:01:48;22.80;99.90
3727;DHT22;1879;45.876;12.300;2023-07-31T04:04:15;22.70;99.90
3727;DHT22;1879;45.876;12.300;2023-07-31T04:06:42;22.60;99.90
3727;DHT22;1879;45.876;12.300;2023-07-31T04:09:09;22.60;99.90
3727;DHT22;1879;45.876;12.300;2023-07-31T04:11:36;22.60;99.90
3727;DHT22;1879;45.876;12.300;2023-07-31T04:14:04;22.50;99.90
3727;DHT22;1879;45.876;12.300;2023-07-31T04:16:33;22.50;99.90
3727;DHT22;1879;45.876;12.300;2023-07-31T04:18:59;22.60;99.90
3727;DHT22;1879;45.876;12.300;2023-07-31T04:21:26;22.70;99.90
3727;DHT22;1879;45.876;12.300;2023-07-31T04:23:53;22.70;99.90
3727;DHT22;1879;45.876;12.300;2023-07-31T04:26:21;22.80;99.90
3727;DHT22;1879;45.876;12.300;2023-07-31T04:28:48;22.80;99.90
3727;DHT22;1879;45.876;12.300;2023-07-31T04:31:15;22.80;99.90
3727;DHT22;1879;45.876;12.300;2023-07-31T04:33:43;22.90;99.90
3727;DHT22;1879;45.876;12.300;2023-07-31T04:36:10;22.90;99.90
3727;DHT22;1879;45.876;12.300;2023-07-31T04:38:37;22.90;99.90
3727;DHT22;1879;45.876;12.300;2023-07-31T04:41:04;23.00;99.90
3727;DHT22;1879;45.876;12.300;2023-07-31T04:43:31;23.00;99.90
3727;DHT22;1879;45.876;12.300;2023-07-31T04:45:58;23.00;99.90
3727;DHT22;1879;45.876;12.300;2023-07-31T04:48:25;23.10;99.90
3727;DHT22;1879;45.876;12.300;2023-07-31T04:50:55;23.10;99.90
3727;DHT22;1879;45.876;12.300;2023-07-31T04:53:22;23.10;99.90
3727;DHT22;1879;45.876;12.300;2023-07-31T04:55:49;23.20;99.90
3727;DHT22;1879;45.876;12.300;2023-07-31T04:58:16;23.20;99.90
3727;DHT22;1879;45.876;12.300;2023-07-31T05:00:43;23.20;99.90
3727;DHT22;1879;45.876;12.300;2023-07-31T05:03:10;23.30;99.90
3727;DHT22;1879;45.876;12.300;2023-07-31T05:05:37;23.40;99.90
3727;DHT22;1879;45.876;12.300;2023-07-31T05:08:05;23.40;99.90
3727;DHT22;1879;45.876;12.300;2023-07-31T05:10:32;23.50;99.90
3727;DHT22;1879;45.876;12.300;2023-07-31T05:12:59;23.50;99.90
3727;DHT22;1879;45.876;12.300;2023-07-31T05:15:26;23.60;99.90
3727;DHT22;1879;45.876;12.300;2023-07-31T05:17:53;23.70;99.90
3727;DHT22;1879;45.876;12.300;2023-07-31T05:20:20;23.70;99.90
3727;DHT22;1879;45.876;12.300;2023-07-31T05:22:47;23.70;99.90
3727;DHT22;1879;45.876;12.300;2023-07-31T05:25:16;23.80;99.90
3727;DHT22;1879;45.876;12.300;2023-07-31T05:27:43;23.90;99.90
3727;DHT22;1879;45.876;12.300;2023-07-31T05:30:10;24.00;99.90
3727;DHT22;1879;45.876;12.300;2023-07-31T05:32:37;24.10;99.90
3727;DHT22;1879;45.876;12.300;2023-07-31T05:35:05;24.20;99.90
3727;DHT22;1879;45.876;12.300;2023-07-31T05:37:32;24.30;99.90
3727;DHT22;1879;45.876;12.300;2023-07-31T05:39:58;24.30;99.90
3727;DHT22;1879;45.876;12.300;2023-07-31T05:42:27;24.40;99.90
3727;DHT22;1879;45.876;12.300;2023-07-31T05:44:54;24.50;99.90
3727;DHT22;1879;45.876;12.300;2023-07-31T05:47:21;24.60;99.90
3727;DHT22;1879;45.876;12.300;2023-07-31T05:49:48;24.70;99.90
3727;DHT22;1879;45.876;12.300;2023-07-31T05:52:18;24.80;99.90
3727;DHT22;1879;45.876;12.300;2023-07-31T05:54:45;24.80;99.90
3727;DHT22;1879;45.876;12.300;2023-07-31T05:57:12;24.90;99.90
3727;DHT22;1879;45.876;12.300;2023-07-31T05:59:40;24.90;99.90
3727;DHT22;1879;45.876;12.300;2023-07-31T06:02:07;25.00;99.90
3727;DHT22;1879;45.876;12.300;2023-07-31T06:04:34;25.10;99.90
3727;DHT22;1879;45.876;12.300;2023-07-31T06:07:01;25.20;99.90
3727;DHT22;1879;45.876;12.300;2023-07-31T06:09:29;25.20;99.90
3727;DHT22;1879;45.876;12.300;2023-07-31T06:11:56;25.30;99.90
3727;DHT22;1879;45.876;12.300;2023-07-31T06:14:23;25.40;99.90
3727;DHT22;1879;45.876;12.300;2023-07-31T06:16:51;25.40;99.90
3727;DHT22;1879;45.876;12.300;2023-07-31T06:19:18;25.40;99.90
3727;DHT22;1879;45.876;12.300;2023-07-31T06:21:45;25.50;99.90
3727;DHT22;1879;45.876;12.300;2023-07-31T06:24:12;25.50;99.90
3727;DHT22;1879;45.876;12.300;2023-07-31T06:26:44;25.60;99.90
3727;DHT22;1879;45.876;12.300;2023-07-31T06:29:11;25.70;99.90
3727;DHT22;1879;45.876;12.300;2023-07-31T06:31:38;25.70;99.90
3727;DHT22;1879;45.876;12.300;2023-07-31T06:34:06;25.70;99.90
3727;DHT22;1879;45.876;12.300;2023-07-31T06:36:33;25.80;99.90
3727;DHT22;1879;45.876;12.300;2023-07-31T06:39:00;25.90;99.90
3727;DHT22;1879;45.876;12.300;2023-07-31T06:41:27;26.00;99.90
3727;DHT22;1879;45.876;12.300;2023-07-31T06:43:54;26.10;99.90
3727;DHT22;1879;45.876;12.300;2023-07-31T06:46:21;26.20;99.90
3727;DHT22;1879;45.876;12.300;2023-07-31T06:48:48;26.30;99.90
3727;DHT22;1879;45.876;12.300;2023-07-31T06:51:16;26.40;99.90
3727;DHT22;1879;45.876;12.300;2023-07-31T06:53:43;26.50;99.90
3727;DHT22;1879;45.876;12.300;2023-07-31T06:56:11;26.60;99.90
3727;DHT22;1879;45.876;12.300;2023-07-31T06:58:38;26.60;99.90
3727;DHT22;1879;45.876;12.300;2023-07-31T07:01:05;26.70;99.90
3727;DHT22;1879;45.876;12.300;2023-07-31T07:03:32;26.80;99.90
3727;DHT22;1879;45.876;12.300;2023-07-31T07:05:59;26.90;99.90
3727;DHT22;1879;45.876;12.300;2023-07-31T07:08:27;26.90;99.90
3727;DHT22;1879;45.876;12.300;2023-07-31T07:10:54;27.00;99.90
3727;DHT22;1879;45.876;12.300;2023-07-31T07:13:21;27.00;99.90
3727;DHT22;1879;45.876;12.300;2023-07-31T07:15:48;27.10;99.90
3727;DHT22;1879;45.876;12.300;2023-07-31T07:18:16;27.10;99.90
3727;DHT22;1879;45.876;12.300;2023-07-31T07:20:46;27.20;99.90
3727;DHT22;1879;45.876;12.300;2023-07-31T07:23:14;27.30;99.90
3727;DHT22;1879;45.876;12.300;2023-07-31T07:25:42;27.30;99.90
3727;DHT22;1879;45.876;12.300;2023-07-31T07:28:10;27.50;99.90
3727;DHT22;1879;45.876;12.300;2023-07-31T07:30:37;27.50;99.90
3727;DHT22;1879;45.876;12.300;2023-07-31T07:33:04;27.60;99.90
3727;DHT22;1879;45.876;12.300;2023-07-31T07:35:33;27.60;99.90
3727;DHT22;1879;45.876;12.300;2023-07-31T07:38:01;27.60;99.90
3727;DHT22;1879;45.876;12.300;2023-07-31T07:40:28;27.60;99.90
3727;DHT22;1879;45.876;12.300;2023-07-31T07:42:56;27.60;99.90
3727;DHT22;1879;45.876;12.300;2023-07-31T07:45:23;27.80;99.90
3727;DHT22;1879;45.876;12.300;2023-07-31T07:47:50;28.00;99.90
3727;DHT22;1879;45.876;12.300;2023-07-31T07:50:17;28.10;99.90
3727;DHT22;1879;45.876;12.300;2023-07-31T07:52:44;28.20;99.40
3727;DHT22;1879;45.876;12.300;2023-07-31T07:55:11;28.30;99.20
3727;DHT22;1879;45.876;12.300;2023-07-31T07:57:38;28.40;99.00
3727;DHT22;1879;45.876;12.300;2023-07-31T08:00:08;28.50;98.90
3727;DHT22;1879;45.876;12.300;2023-07-31T08:02:36;28.60;99.00
3727;DHT22;1879;45.876;12.300;2023-07-31T08:05:03;28.60;98.80
3727;DHT22;1879;45.876;12.300;2023-07-31T08:07:30;28.70;98.70
3727;DHT22;1879;45.876;12.300;2023-07-31T08:09:57;28.70;99.00
3727;DHT22;1879;45.876;12.300;2023-07-31T08:12:24;28.80;98.20
3727;DHT22;1879;45.876;12.300;2023-07-31T08:14:51;28.90;97.80
3727;DHT22;1879;45.876;12.300;2023-07-31T08:17:20;28.90;97.00
3727;DHT22;1879;45.876;12.300;2023-07-31T08:19:47;29.00;96.60
3727;DHT22;1879;45.876;12.300;2023-07-31T08:22:14;29.00;96.30
3727;DHT22;1879;45.876;12.300;2023-07-31T08:24:41;28.90;96.50
3727;DHT22;1879;45.876;12.300;2023-07-31T08:27:08;29.00;96.40
3727;DHT22;1879;45.876;12.300;2023-07-31T08:29:35;29.10;96.00
3727;DHT22;1879;45.876;12.300;2023-07-31T08:32:02;29.10;96.10
3727;DHT22;1879;45.876;12.300;2023-07-31T08:34:30;29.20;96.10
3727;DHT22;1879;45.876;12.300;2023-07-31T08:36:57;29.30;95.60
3727;DHT22;1879;45.876;12.300;2023-07-31T08:39:24;29.30;95.60
3727;DHT22;1879;45.876;12.300;2023-07-31T08:41:51;29.20;95.40
3727;DHT22;1879;45.876;12.300;2023-07-31T08:44:18;29.20;95.00
3727;DHT22;1879;45.876;12.300;2023-07-31T08:46:46;29.20;95.00
3727;DHT22;1879;45.876;12.300;2023-07-31T08:49:14;29.10;95.50
3727;DHT22;1879;45.876;12.300;2023-07-31T08:51:46;29.10;95.30
3727;DHT22;1879;45.876;12.300;2023-07-31T08:54:13;29.10;95.40
3727;DHT22;1879;45.876;12.300;2023-07-31T08:56:40;29.20;95.40
3727;DHT22;1879;45.876;12.300;2023-07-31T08:59:08;29.10;94.90
3727;DHT22;1879;45.876;12.300;2023-07-31T09:01:41;29.00;95.20
3727;DHT22;1879;45.876;12.300;2023-07-31T09:04:10;28.90;94.90
3727;DHT22;1879;45.876;12.300;2023-07-31T09:06:39;28.90;95.10
3727;DHT22;1879;45.876;12.300;2023-07-31T09:09:08;28.90;94.80
3727;DHT22;1879;45.876;12.300;2023-07-31T09:11:35;29.00;94.70
3727;DHT22;1879;45.876;12.300;2023-07-31T09:14:03;28.90;94.90
3727;DHT22;1879;45.876;12.300;2023-07-31T09:16:34;28.90;94.80
3727;DHT22;1879;45.876;12.300;2023-07-31T09:19:01;28.70;94.90
3727;DHT22;1879;45.876;12.300;2023-07-31T09:21:29;28.60;94.80
3727;DHT22;1879;45.876;12.300;2023-07-31T09:23:56;28.60;95.10
3727;DHT22;1879;45.876;12.300;2023-07-31T09:26:31;28.50;94.90
3727;DHT22;1879;45.876;12.300;2023-07-31T09:28:59;28.50;94.80
3727;DHT22;1879;45.876;12.300;2023-07-31T09:31:33;28.50;94.70
3727;DHT22;1879;45.876;12.300;2023-07-31T09:34:00;28.50;94.90
3727;DHT22;1879;45.876;12.300;2023-07-31T09:36:29;28.60;95.10
3727;DHT22;1879;45.876;12.300;2023-07-31T09:39:02;28.70;95.00
3727;DHT22;1879;45.876;12.300;2023-07-31T09:41:31;28.70;95.20
3727;DHT22;1879;45.876;12.300;2023-07-31T09:44:02;28.80;94.80
3727;DHT22;1879;45.876;12.300;2023-07-31T09:46:30;28.90;95.20
3727;DHT22;1879;45.876;12.300;2023-07-31T09:49:04;28.90;95.10
3727;DHT22;1879;45.876;12.300;2023-07-31T09:51:32;29.00;94.60
3727;DHT22;1879;45.876;12.300;2023-07-31T09:54:04;29.00;94.60
3727;DHT22;1879;45.876;12.300;2023-07-31T09:56:37;29.10;94.30
3727;DHT22;1879;45.876;12.300;2023-07-31T09:59:05;29.20;94.50
3727;DHT22;1879;45.876;12.300;2023-07-31T10:01:32;29.20;94.20
3727;DHT22;1879;45.876;12.300;2023-07-31T10:04:00;29.30;94.20
3727;DHT22;1879;45.876;12.300;2023-07-31T10:06:28;29.30;94.50
3727;DHT22;1879;45.876;12.300;2023-07-31T10:08:56;29.40;94.00
3727;DHT22;1879;45.876;12.300;2023-07-31T10:11:25;29.30;93.80
3727;DHT22;1879;45.876;12.300;2023-07-31T10:13:55;29.40;94.00
3727;DHT22;1879;45.876;12.300;2023-07-31T10:16:23;29.40;93.70
3727;DHT22;1879;45.876;12.300;2023-07-31T10:18:50;29.50;93.60
3727;DHT22;1879;45.876;12.300;2023-07-31T10:21:18;29.60;93.80
3727;DHT22;1879;45.876;12.300;2023-07-31T10:23:46;29.70;93.10
3727;DHT22;1879;45.876;12.300;2023-07-31T10:26:17;29.70;93.40
3727;DHT22;1879;45.876;12.300;2023-07-31T10:28:47;29.80;93.90
3727;DHT22;1879;45.876;12.300;2023-07-31T10:31:16;29.80;93.50
3727;DHT22;1879;45.876;12.300;2023-07-31T10:33:45;29.80;93.30
3727;DHT22;1879;45.876;12.300;2023-07-31T10:36:13;29.90;93.30
3727;DHT22;1879;45.876;12.300;2023-07-31T10:38:40;30.00;93.20
3727;DHT22;1879;45.876;12.300;2023-07-31T10:41:10;30.00;91.90
3727;DHT22;1879;45.876;12.300;2023-07-31T10:43:37;30.00;91.90
3727;DHT22;1879;45.876;12.300;2023-07-31T10:46:08;30.00;91.90
3727;DHT22;1879;45.876;12.300;2023-07-31T10:48:38;30.10;92.00
3727;DHT22;1879;45.876;12.300;2023-07-31T10:51:08;30.20;92.20
3727;DHT22;1879;45.876;12.300;2023-07-31T10:53:36;30.20;92.20
3727;DHT22;1879;45.876;12.300;2023-07-31T10:56:05;30.30;92.50
3727;DHT22;1879;45.876;12.300;2023-07-31T10:58:32;30.50;92.30
3727;DHT22;1879;45.876;12.300;2023-07-31T11:01:01;30.60;91.90
3727;DHT22;1879;45.876;12.300;2023-07-31T11:03:43;30.70;92.00
3727;DHT22;1879;45.876;12.300;2023-07-31T11:06:10;30.80;91.50
3727;DHT22;1879;45.876;12.300;2023-07-31T11:08:42;30.80;91.80
3727;DHT22;1879;45.876;12.300;2023-07-31T11:11:11;30.90;91.80
3727;DHT22;1879;45.876;12.300;2023-07-31T11:13:43;31.00;92.20
3727;DHT22;1879;45.876;12.300;2023-07-31T11:16:11;30.90;91.40
3727;DHT22;1879;45.876;12.300;2023-07-31T11:18:39;30.90;91.30
3727;DHT22;1879;45.876;12.300;2023-07-31T11:21:11;31.10;92.10
3727;DHT22;1879;45.876;12.300;2023-07-31T11:23:38;31.30;91.80
3727;DHT22;1879;45.876;12.300;2023-07-31T11:26:06;31.60;91.80
3727;DHT22;1879;45.876;12.300;2023-07-31T11:28:34;31.90;91.50
3727;DHT22;1879;45.876;12.300;2023-07-31T11:31:02;32.00;91.60
3727;DHT22;1879;45.876;12.300;2023-07-31T11:33:29;32.30;91.30
3727;DHT22;1879;45.876;12.300;2023-07-31T11:35:57;32.50;90.70
3727;DHT22;1879;45.876;12.300;2023-07-31T11:38:27;32.70;90.40
3727;DHT22;1879;45.876;12.300;2023-07-31T11:40:56;32.90;90.50
3727;DHT22;1879;45.876;12.300;2023-07-31T11:43:23;33.10;90.00
3727;DHT22;1879;45.876;12.300;2023-07-31T11:45:53;33.30;89.10
3727;DHT22;1879;45.876;12.300;2023-07-31T11:48:22;33.50;88.90
3727;DHT22;1879;45.876;12.300;2023-07-31T11:50:50;33.50;87.90
3727;DHT22;1879;45.876;12.300;2023-07-31T11:53:20;33.40;88.10
3727;DHT22;1879;45.876;12.300;2023-07-31T11:55:50;33.40;87.30
3727;DHT22;1879;45.876;12.300;2023-07-31T11:58:18;33.60;86.40
3727;DHT22;1879;45.876;12.300;2023-07-31T12:00:46;33.70;85.60
3727;DHT22;1879;45.876;12.300;2023-07-31T12:03:14;33.90;86.30
3727;DHT22;1879;45.876;12.300;2023-07-31T12:05:41;34.10;86.10
3727;DHT22;1879;45.876;12.300;2023-07-31T12:08:11;34.40;84.70
3727;DHT22;1879;45.876;12.300;2023-07-31T12:10:39;34.50;83.40
3727;DHT22;1879;45.876;12.300;2023-07-31T12:13:09;34.60;84.70
3727;DHT22;1879;45.876;12.300;2023-07-31T12:15:40;34.70;83.80
3727;DHT22;1879;45.876;12.300;2023-07-31T12:18:09;34.80;84.00
3727;DHT22;1879;45.876;12.300;2023-07-31T12:20:41;34.80;83.10
3727;DHT22;1879;45.876;12.300;2023-07-31T12:23:16;34.80;81.60
3727;DHT22;1879;45.876;12.300;2023-07-31T12:25:43;34.90;80.80
3727;DHT22;1879;45.876;12.300;2023-07-31T12:28:12;35.20;80.90
3727;DHT22;1879;45.876;12.300;2023-07-31T12:30:40;35.40;80.10
3727;DHT22;1879;45.876;12.300;2023-07-31T12:33:12;35.30;78.80
3727;DHT22;1879;45.876;12.300;2023-07-31T12:35:42;35.30;78.30
3727;DHT22;1879;45.876;12.300;2023-07-31T12:38:10;35.40;78.50
3727;DHT22;1879;45.876;12.300;2023-07-31T12:40:38;35.70;78.80
3727;DHT22;1879;45.876;12.300;2023-07-31T12:43:05;36.00;77.60
3727;DHT22;1879;45.876;12.300;2023-07-31T12:45:34;36.00;77.10
3727;DHT22;1879;45.876;12.300;2023-07-31T12:48:01;36.10;76.50
3727;DHT22;1879;45.876;12.300;2023-07-31T12:50:28;36.00;75.50
3727;DHT22;1879;45.876;12.300;2023-07-31T12:52:56;35.80;76.10
3727;DHT22;1879;45.876;12.300;2023-07-31T12:55:23;35.90;76.30
3727;DHT22;1879;45.876;12.300;2023-07-31T12:57:51;36.00;76.20
3727;DHT22;1879;45.876;12.300;2023-07-31T13:00:18;36.00;75.20
3727;DHT22;1879;45.876;12.300;2023-07-31T13:02:46;36.00;73.60
3727;DHT22;1879;45.876;12.300;2023-07-31T13:05:13;36.10;72.00
3727;DHT22;1879;45.876;12.300;2023-07-31T13:07:40;36.10;70.90
3727;DHT22;1879;45.876;12.300;2023-07-31T13:10:08;36.20;71.20
3727;DHT22;1879;45.876;12.300;2023-07-31T13:12:35;36.20;71.40
3727;DHT22;1879;45.876;12.300;2023-07-31T13:15:02;36.20;71.60
3727;DHT22;1879;45.876;12.300;2023-07-31T13:17:29;35.90;71.30
3727;DHT22;1879;45.876;12.300;2023-07-31T13:19:58;35.30;71.70
3727;DHT22;1879;45.876;12.300;2023-07-31T13:22:25;35.00;72.40
3727;DHT22;1879;45.876;12.300;2023-07-31T13:24:52;35.20;72.50
3727;DHT22;1879;45.876;12.300;2023-07-31T13:27:19;35.20;71.60
3727;DHT22;1879;45.876;12.300;2023-07-31T13:29:47;35.50;71.20
3727;DHT22;1879;45.876;12.300;2023-07-31T13:32:15;35.70;70.20
3727;DHT22;1879;45.876;12.300;2023-07-31T13:34:42;35.40;70.20
3727;DHT22;1879;45.876;12.300;2023-07-31T13:37:10;35.10;70.40
3727;DHT22;1879;45.876;12.300;2023-07-31T13:39:37;35.00;71.40
3727;DHT22;1879;45.876;12.300;2023-07-31T13:42:05;35.00;72.60
3727;DHT22;1879;45.876;12.300;2023-07-31T13:44:33;34.70;72.20
3727;DHT22;1879;45.876;12.300;2023-07-31T13:47:00;34.60;73.50
3727;DHT22;1879;45.876;12.300;2023-07-31T13:49:28;34.60;73.20
3727;DHT22;1879;45.876;12.300;2023-07-31T13:51:55;34.50;73.10
3727;DHT22;1879;45.876;12.300;2023-07-31T13:54:23;34.20;73.50
3727;DHT22;1879;45.876;12.300;2023-07-31T13:56:51;33.70;74.70
3727;DHT22;1879;45.876;12.300;2023-07-31T13:59:18;33.30;76.20
3727;DHT22;1879;45.876;12.300;2023-07-31T14:01:46;33.50;76.80
3727;DHT22;1879;45.876;12.300;2023-07-31T14:04:13;33.90;76.60
3727;DHT22;1879;45.876;12.300;2023-07-31T14:06:40;34.50;76.20
3727;DHT22;1879;45.876;12.300;2023-07-31T14:09:07;34.70;75.10
3727;DHT22;1879;45.876;12.300;2023-07-31T14:11:36;34.60;74.90
3727;DHT22;1879;45.876;12.300;2023-07-31T14:14:03;34.30;75.50
3727;DHT22;1879;45.876;12.300;2023-07-31T14:16:30;33.90;75.60
3727;DHT22;1879;45.876;12.300;2023-07-31T14:18:57;33.50;75.50
3727;DHT22;1879;45.876;12.300;2023-07-31T14:21:25;33.20;76.50
3727;DHT22;1879;45.876;12.300;2023-07-31T14:23:52;33.00;77.30
3727;DHT22;1879;45.876;12.300;2023-07-31T14:26:19;33.10;77.40
3727;DHT22;1879;45.876;12.300;2023-07-31T14:28:48;33.50;77.70
3727;DHT22;1879;45.876;12.300;2023-07-31T14:31:15;34.20;77.00
3727;DHT22;1879;45.876;12.300;2023-07-31T14:33:42;34.40;76.60
3727;DHT22;1879;45.876;12.300;2023-07-31T14:36:09;34.30;75.50
3727;DHT22;1879;45.876;12.300;2023-07-31T14:38:36;33.90;75.60
3727;DHT22;1879;45.876;12.300;2023-07-31T14:41:03;33.50;75.70
3727;DHT22;1879;45.876;12.300;2023-07-31T14:43:30;33.20;76.20
3727;DHT22;1879;45.876;12.300;2023-07-31T14:45:58;33.00;77.30
3727;DHT22;1879;45.876;12.300;2023-07-31T14:48:25;32.90;79.00
3727;DHT22;1879;45.876;12.300;2023-07-31T14:50:53;33.10;79.80
3727;DHT22;1879;45.876;12.300;2023-07-31T14:53:21;33.20;78.60
3727;DHT22;1879;45.876;12.300;2023-07-31T14:55:48;33.20;78.90
3727;DHT22;1879;45.876;12.300;2023-07-31T14:58:15;33.00;78.80
3727;DHT22;1879;45.876;12.300;2023-07-31T15:00:42;32.80;78.70
3727;DHT22;1879;45.876;12.300;2023-07-31T15:03:11;33.00;80.10
3727;DHT22;1879;45.876;12.300;2023-07-31T15:05:38;33.40;79.90
3727;DHT22;1879;45.876;12.300;2023-07-31T15:08:05;33.60;78.70
3727;DHT22;1879;45.876;12.300;2023-07-31T15:10:32;33.50;78.10
3727;DHT22;1879;45.876;12.300;2023-07-31T15:12:59;33.30;77.30
3727;DHT22;1879;45.876;12.300;2023-07-31T15:15:27;33.10;77.40
3727;DHT22;1879;45.876;12.300;2023-07-31T15:17:54;32.90;78.80
3727;DHT22;1879;45.876;12.300;2023-07-31T15:20:22;32.70;78.80
3727;DHT22;1879;45.876;12.300;2023-07-31T15:22:49;32.60;79.80
3727;DHT22;1879;45.876;12.300;2023-07-31T15:25:16;32.40;80.40
3727;DHT22;1879;45.876;12.300;2023-07-31T15:27:43;32.40;81.70
3727;DHT22;1879;45.876;12.300;2023-07-31T15:30:11;32.30;82.10
3727;DHT22;1879;45.876;12.300;2023-07-31T15:32:38;32.30;81.50
3727;DHT22;1879;45.876;12.300;2023-07-31T15:35:06;32.40;81.00
3727;DHT22;1879;45.876;12.300;2023-07-31T15:37:34;32.30;81.30
3727;DHT22;1879;45.876;12.300;2023-07-31T15:40:01;32.30;81.80
3727;DHT22;1879;45.876;12.300;2023-07-31T15:42:28;32.30;81.10
3727;DHT22;1879;45.876;12.300;2023-07-31T15:44:55;32.10;81.70
3727;DHT22;1879;45.876;12.300;2023-07-31T15:47:22;32.00;81.90